sensor_id;sensor_type;location;lat;lon;timestamp;pressure;altitude;pressure_sealevel;temperature;humidity
76478;BME280;65309;49.790;18.972;2023-02-28T00:03:16;97954.84;;;-1.60;73.84
76478;BME280;65309;49.790;18.972;2023-02-28T00:08:20;97959.00;;;-1.66;73.97
76478;BME280;65309;49.790;18.972;2023-02-28T00:13:22;97961.41;;;-1.61;74.83
76478;BME280;65309;49.790;18.972;2023-02-28T00:18:24;97958.94;;;-1.73;74.57
76478;BME280;65309;49.790;18.972;2023-02-28T00:23:28;97957.44;;;-1.67;73.68
76478;BME280;65309;49.790;18.972;2023-02-28T00:28:30;97960.66;;;-1.58;72.40
76478;BME280;65309;49.790;18.972;2023-02-28T00:33:32;97958.25;;;-1.63;72.26
76478;BME280;65309;49.790;18.972;2023-02-28T00:38:36;97959.84;;;-1.62;71.28
76478;BME280;65309;49.790;18.972;2023-02-28T00:43:38;97958.19;;;-1.70;68.17
76478;BME280;65309;49.790;18.972;2023-02-28T00:48:40;97945.84;;;-1.67;65.51
76478;BME280;65309;49.790;18.972;2023-02-28T00:53:44;97951.19;;;-1.71;66.21
76478;BME280;65309;49.790;18.972;2023-02-28T00:58:46;97936.47;;;-1.73;67.52
76478;BME280;65309;49.790;18.972;2023-02-28T01:03:48;97936.00;;;-1.79;66.08
76478;BME280;65309;49.790;18.972;2023-02-28T01:08:52;97929.28;;;-1.59;61.33
76478;BME280;65309;49.790;18.972;2023-02-28T01:13:54;97933.44;;;-1.68;68.17
76478;BME280;65309;49.790;18.972;2023-02-28T01:18:56;97916.25;;;-1.79;69.07
76478;BME280;65309;49.790;18.972;2023-02-28T01:24:00;97933.22;;;-1.86;68.20
76478;BME280;65309;49.790;18.972;2023-02-28T01:29:02;97929.44;;;-1.78;68.93
76478;BME280;65309;49.790;18.972;2023-02-28T01:34:04;97938.63;;;-1.86;68.96
76478;BME280;65309;49.790;18.972;2023-02-28T01:39:08;97920.09;;;-1.84;67.66
76478;BME280;65309;49.790;18.972;2023-02-28T01:50:03;97907.97;;;-1.94;63.79
76478;BME280;65309;49.790;18.972;2023-02-28T01:55:08;97910.66;;;-1.94;62.68
76478;BME280;65309;49.790;18.972;2023-02-28T02:00:14;97911.41;;;-1.97;63.32
76478;BME280;65309;49.790;18.972;2023-02-28T02:05:18;97915.94;;;-2.04;63.59
76478;BME280;65309;49.790;18.972;2023-02-28T02:10:27;97910.22;;;-1.99;63.76
76478;BME280;65309;49.790;18.972;2023-02-28T02:15:34;97909.06;;;-1.98;63.20
76478;BME280;65309;49.790;18.972;2023-02-28T02:21:11;97901.63;;;-2.05;64.95
76478;BME280;65309;49.790;18.972;2023-02-28T02:32:01;97907.50;;;-1.99;65.30
76478;BME280;65309;49.790;18.972;2023-02-28T02:37:17;97906.66;;;-2.03;64.68
76478;BME280;65309;49.790;18.972;2023-02-28T02:42:27;97897.44;;;-1.99;63.66
76478;BME280;65309;49.790;18.972;2023-02-28T02:47:31;97901.22;;;-2.07;64.19
76478;BME280;65309;49.790;18.972;2023-02-28T02:52:38;97905.16;;;-2.01;64.01
76478;BME280;65309;49.790;18.972;2023-02-28T02:57:45;97922.16;;;-2.04;64.77
76478;BME280;65309;49.790;18.972;2023-02-28T03:02:50;97917.69;;;-1.89;64.42
76478;BME280;65309;49.790;18.972;2023-02-28T03:07:55;97917.66;;;-1.93;63.63
76478;BME280;65309;49.790;18.972;2023-02-28T03:13:08;97920.22;;;-2.03;64.34
76478;BME280;65309;49.790;18.972;2023-02-28T03:18:19;97916.13;;;-1.90;64.65
76478;BME280;65309;49.790;18.972;2023-02-28T03:23:34;97921.03;;;-1.99;64.75
76478;BME280;65309;49.790;18.972;2023-02-28T03:28:41;97928.44;;;-1.96;65.73
76478;BME280;65309;49.790;18.972;2023-02-28T03:33:50;97924.34;;;-1.83;64.44
76478;BME280;65309;49.790;18.972;2023-02-28T03:39:02;97933.94;;;-1.93;64.41
76478;BME280;65309;49.790;18.972;2023-02-28T03:44:09;97929.31;;;-1.89;63.63
76478;BME280;65309;49.790;18.972;2023-02-28T03:49:19;97942.34;;;-2.01;63.80
76478;BME280;65309;49.790;18.972;2023-02-28T03:54:25;97942.34;;;-2.01;63.80
76478;BME280;65309;49.790;18.972;2023-02-28T03:59:33;97936.94;;;-1.98;64.57
76478;BME280;65309;49.790;18.972;2023-02-28T04:04:36;97941.28;;;-1.93;63.89
76478;BME280;65309;49.790;18.972;2023-02-28T04:09:40;97945.47;;;-1.96;64.53
76478;BME280;65309;49.790;18.972;2023-02-28T04:14:42;97949.00;;;-1.92;64.27
76478;BME280;65309;49.790;18.972;2023-02-28T04:19:44;97943.97;;;-1.93;64.59
76478;BME280;65309;49.790;18.972;2023-02-28T04:24:48;97950.97;;;-1.92;63.78
76478;BME280;65309;49.790;18.972;2023-02-28T04:29:50;97949.03;;;-2.21;63.99
76478;BME280;65309;49.790;18.972;2023-02-28T04:34:52;97941.22;;;-2.26;65.10
76478;BME280;65309;49.790;18.972;2023-02-28T04:39:55;97936.66;;;-2.49;66.32
76478;BME280;65309;49.790;18.972;2023-02-28T04:44:57;97943.09;;;-2.57;66.04
76478;BME280;65309;49.790;18.972;2023-02-28T04:49:59;97941.00;;;-2.67;66.83
76478;BME280;65309;49.790;18.972;2023-02-28T04:55:03;97943.41;;;-2.88;66.83
76478;BME280;65309;49.790;18.972;2023-02-28T05:00:06;97936.81;;;-3.13;68.76
76478;BME280;65309;49.790;18.972;2023-02-28T05:05:09;97937.75;;;-3.25;67.81
76478;BME280;65309;49.790;18.972;2023-02-28T05:10:13;97941.06;;;-3.35;68.49
76478;BME280;65309;49.790;18.972;2023-02-28T05:15:16;97948.28;;;-3.62;69.84
76478;BME280;65309;49.790;18.972;2023-02-28T05:20:18;97949.56;;;-3.75;71.26
76478;BME280;65309;49.790;18.972;2023-02-28T05:25:22;97948.88;;;-3.91;71.33
76478;BME280;65309;49.790;18.972;2023-02-28T05:30:24;97962.38;;;-3.91;71.68
76478;BME280;65309;49.790;18.972;2023-02-28T05:35:26;97959.94;;;-3.96;72.67
76478;BME280;65309;49.790;18.972;2023-02-28T05:40:31;97961.97;;;-3.93;72.09
76478;BME280;65309;49.790;18.972;2023-02-28T05:45:33;97973.91;;;-3.94;73.34
76478;BME280;65309;49.790;18.972;2023-02-28T05:50:35;97985.13;;;-3.92;72.98
76478;BME280;65309;49.790;18.972;2023-02-28T05:55:39;97986.00;;;-3.88;72.30
76478;BME280;65309;49.790;18.972;2023-02-28T06:00:42;97993.53;;;-3.78;70.70
76478;BME280;65309;49.790;18.972;2023-02-28T06:05:44;98005.34;;;-3.86;71.60
76478;BME280;65309;49.790;18.972;2023-02-28T06:10:48;98004.63;;;-3.64;72.47
76478;BME280;65309;49.790;18.972;2023-02-28T06:15:50;98003.28;;;-3.74;72.92
76478;BME280;65309;49.790;18.972;2023-02-28T06:20:53;98004.41;;;-3.75;72.99
76478;BME280;65309;49.790;18.972;2023-02-28T06:25:57;98021.84;;;-3.53;72.16
76478;BME280;65309;49.790;18.972;2023-02-28T06:31:06;98015.66;;;-3.34;72.90
76478;BME280;65309;49.790;18.972;2023-02-28T06:36:09;98021.69;;;-3.41;74.80
76478;BME280;65309;49.790;18.972;2023-02-28T06:41:12;98019.56;;;-3.09;71.33
76478;BME280;65309;49.790;18.972;2023-02-28T06:46:14;98016.72;;;-2.97;70.65
76478;BME280;65309;49.790;18.972;2023-02-28T06:51:18;98022.00;;;-2.81;70.72
76478;BME280;65309;49.790;18.972;2023-02-28T06:56:25;98023.06;;;-2.63;69.53
76478;BME280;65309;49.790;18.972;2023-02-28T07:01:27;98032.72;;;-2.43;67.95
76478;BME280;65309;49.790;18.972;2023-02-28T07:06:30;98035.38;;;-2.20;68.25
76478;BME280;65309;49.790;18.972;2023-02-28T07:11:33;98032.19;;;-1.99;67.17
76478;BME280;65309;49.790;18.972;2023-02-28T07:16:35;98038.56;;;-1.88;66.13
76478;BME280;65309;49.790;18.972;2023-02-28T07:21:37;98041.47;;;-1.41;65.51
76478;BME280;65309;49.790;18.972;2023-02-28T07:26:41;98039.31;;;-1.24;62.06
76478;BME280;65309;49.790;18.972;2023-02-28T07:31:43;98043.31;;;-1.15;62.66
76478;BME280;65309;49.790;18.972;2023-02-28T07:36:45;98046.00;;;-0.81;60.54
76478;BME280;65309;49.790;18.972;2023-02-28T07:41:49;98051.03;;;-0.39;59.51
76478;BME280;65309;49.790;18.972;2023-02-28T07:46:51;98059.47;;;-0.52;57.62
76478;BME280;65309;49.790;18.972;2023-02-28T07:51:54;98054.44;;;-0.50;58.54
76478;BME280;65309;49.790;18.972;2023-02-28T07:56:57;98043.25;;;-0.37;59.00
76478;BME280;65309;49.790;18.972;2023-02-28T08:01:59;98043.75;;;-0.25;55.87
76478;BME280;65309;49.790;18.972;2023-02-28T08:07:01;98039.81;;;-0.34;57.76
76478;BME280;65309;49.790;18.972;2023-02-28T08:12:05;98040.41;;;-0.04;57.28
76478;BME280;65309;49.790;18.972;2023-02-28T08:17:08;98040.28;;;-0.25;57.79
76478;BME280;65309;49.790;18.972;2023-02-28T08:22:11;98039.97;;;-0.13;57.59
76478;BME280;65309;49.790;18.972;2023-02-28T08:27:14;98051.88;;;-0.32;57.35
76478;BME280;65309;49.790;18.972;2023-02-28T08:32:16;98050.06;;;-0.14;57.61
76478;BME280;65309;49.790;18.972;2023-02-28T08:37:30;98049.81;;;0.09;57.79
76478;BME280;65309;49.790;18.972;2023-02-28T08:42:34;98055.91;;;-0.08;58.15
76478;BME280;65309;49.790;18.972;2023-02-28T08:47:36;98047.41;;;-0.03;56.71
76478;BME280;65309;49.790;18.972;2023-02-28T08:52:38;98052.13;;;0.00;59.79
76478;BME280;65309;49.790;18.972;2023-02-28T08:57:41;98038.56;;;0.07;57.03
76478;BME280;65309;49.790;18.972;2023-02-28T09:02:43;98039.03;;;0.20;56.84
76478;BME280;65309;49.790;18.972;2023-02-28T09:07:45;98039.66;;;-0.01;57.43
76478;BME280;65309;49.790;18.972;2023-02-28T09:12:49;98043.84;;;0.51;58.25
76478;BME280;65309;49.790;18.972;2023-02-28T09:17:51;98046.41;;;1.16;53.42
76478;BME280;65309;49.790;18.972;2023-02-28T09:22:53;98040.97;;;1.23;52.53
76478;BME280;65309;49.790;18.972;2023-02-28T09:27:56;98052.69;;;1.52;49.96
76478;BME280;65309;49.790;18.972;2023-02-28T09:32:58;98044.06;;;1.15;51.69
76478;BME280;65309;49.790;18.972;2023-02-28T09:38:00;98049.56;;;1.68;52.23
76478;BME280;65309;49.790;18.972;2023-02-28T09:43:05;98044.13;;;1.61;53.16
76478;BME280;65309;49.790;18.972;2023-02-28T09:48:11;98052.66;;;2.02;53.10
76478;BME280;65309;49.790;18.972;2023-02-28T09:53:19;98050.34;;;1.82;51.11
76478;BME280;65309;49.790;18.972;2023-02-28T09:58:28;98061.22;;;1.29;51.36
76478;BME280;65309;49.790;18.972;2023-02-28T10:03:36;98055.41;;;1.52;51.63
76478;BME280;65309;49.790;18.972;2023-02-28T10:08:46;98051.13;;;1.48;50.81
76478;BME280;65309;49.790;18.972;2023-02-28T10:13:54;98058.16;;;1.73;50.15
76478;BME280;65309;49.790;18.972;2023-02-28T10:19:06;98057.34;;;1.52;50.85
76478;BME280;65309;49.790;18.972;2023-02-28T10:24:19;98058.13;;;1.52;53.95
76478;BME280;65309;49.790;18.972;2023-02-28T10:29:23;98041.78;;;1.52;52.63
76478;BME280;65309;49.790;18.972;2023-02-28T10:34:25;98042.19;;;1.54;51.05
76478;BME280;65309;49.790;18.972;2023-02-28T10:39:35;98041.34;;;1.18;55.26
76478;BME280;65309;49.790;18.972;2023-02-28T10:44:40;98044.00;;;1.01;55.24
76478;BME280;65309;49.790;18.972;2023-02-28T10:49:46;98036.69;;;1.51;54.31
76478;BME280;65309;49.790;18.972;2023-02-28T10:54:49;98019.19;;;1.55;57.33
76478;BME280;65309;49.790;18.972;2023-02-28T10:59:53;98021.06;;;1.02;53.16
76478;BME280;65309;49.790;18.972;2023-02-28T11:05:24;98026.59;;;1.37;54.30
76478;BME280;65309;49.790;18.972;2023-02-28T11:10:30;98014.09;;;1.18;55.55
76478;BME280;65309;49.790;18.972;2023-02-28T11:15:35;98006.69;;;1.15;55.06
76478;BME280;65309;49.790;18.972;2023-02-28T11:20:38;98011.38;;;1.36;55.19
76478;BME280;65309;49.790;18.972;2023-02-28T11:25:47;97998.13;;;1.34;55.88
76478;BME280;65309;49.790;18.972;2023-02-28T11:31:01;97992.72;;;1.42;54.00
76478;BME280;65309;49.790;18.972;2023-02-28T11:36:10;97996.59;;;1.33;52.95
76478;BME280;65309;49.790;18.972;2023-02-28T11:41:22;97991.91;;;1.59;53.68
76478;BME280;65309;49.790;18.972;2023-02-28T11:46:37;97989.19;;;1.59;55.95
76478;BME280;65309;49.790;18.972;2023-02-28T11:51:47;97987.63;;;1.68;58.02
76478;BME280;65309;49.790;18.972;2023-02-28T11:56:52;97995.03;;;1.75;56.72
76478;BME280;65309;49.790;18.972;2023-02-28T12:02:15;97984.88;;;1.86;55.65
76478;BME280;65309;49.790;18.972;2023-02-28T12:07:28;97989.94;;;1.98;57.71
76478;BME280;65309;49.790;18.972;2023-02-28T12:12:39;97982.94;;;1.72;56.35
76478;BME280;65309;49.790;18.972;2023-02-28T12:18:00;97969.72;;;1.71;56.09
76478;BME280;65309;49.790;18.972;2023-02-28T12:23:19;97969.28;;;1.94;55.23
76478;BME280;65309;49.790;18.972;2023-02-28T12:28:27;97975.94;;;1.78;56.13
76478;BME280;65309;49.790;18.972;2023-02-28T12:33:35;97984.13;;;1.78;57.11
76478;BME280;65309;49.790;18.972;2023-02-28T12:38:41;97972.81;;;1.87;57.09
76478;BME280;65309;49.790;18.972;2023-02-28T12:43:50;97974.00;;;1.58;57.74
76478;BME280;65309;49.790;18.972;2023-02-28T12:48:59;97975.16;;;1.67;56.35
76478;BME280;65309;49.790;18.972;2023-02-28T12:54:10;97975.53;;;1.91;56.24
76478;BME280;65309;49.790;18.972;2023-02-28T12:59:22;97963.81;;;2.04;57.04
76478;BME280;65309;49.790;18.972;2023-02-28T13:04:40;97956.84;;;1.82;57.10
76478;BME280;65309;49.790;18.972;2023-02-28T13:09:52;97966.16;;;1.99;55.50
76478;BME280;65309;49.790;18.972;2023-02-28T13:15:04;97957.53;;;2.14;56.65
76478;BME280;65309;49.790;18.972;2023-02-28T13:20:16;97952.03;;;2.21;54.58
76478;BME280;65309;49.790;18.972;2023-02-28T13:25:52;97951.31;;;2.10;56.06
76478;BME280;65309;49.790;18.972;2023-02-28T13:31:05;97942.69;;;2.19;56.28
76478;BME280;65309;49.790;18.972;2023-02-28T13:36:10;97951.28;;;2.17;57.03
76478;BME280;65309;49.790;18.972;2023-02-28T13:41:43;97952.91;;;1.97;54.73
76478;BME280;65309;49.790;18.972;2023-02-28T13:47:24;97937.69;;;2.03;55.95
76478;BME280;65309;49.790;18.972;2023-02-28T13:52:32;97934.19;;;1.99;55.40
76478;BME280;65309;49.790;18.972;2023-02-28T13:57:44;97937.00;;;1.74;56.90
76478;BME280;65309;49.790;18.972;2023-02-28T14:03:07;97932.59;;;2.09;57.91
76478;BME280;65309;49.790;18.972;2023-02-28T14:08:16;97930.66;;;2.09;54.46
76478;BME280;65309;49.790;18.972;2023-02-28T14:13:41;97919.72;;;2.09;56.10
76478;BME280;65309;49.790;18.972;2023-02-28T14:18:49;97921.72;;;1.98;55.89
76478;BME280;65309;49.790;18.972;2023-02-28T14:24:16;97917.44;;;1.97;56.08
76478;BME280;65309;49.790;18.972;2023-02-28T14:29:46;97917.06;;;1.88;57.18
76478;BME280;65309;49.790;18.972;2023-02-28T14:34:59;97916.34;;;1.70;56.13
76478;BME280;65309;49.790;18.972;2023-02-28T14:40:12;97913.97;;;1.75;55.84
76478;BME280;65309;49.790;18.972;2023-02-28T14:45:21;97912.06;;;1.69;57.47
76478;BME280;65309;49.790;18.972;2023-02-28T14:50:27;97908.59;;;1.58;57.27
76478;BME280;65309;49.790;18.972;2023-02-28T14:55:34;97915.19;;;1.57;57.97
76478;BME280;65309;49.790;18.972;2023-02-28T15:00:47;97927.28;;;1.49;57.18
76478;BME280;65309;49.790;18.972;2023-02-28T15:05:53;97930.41;;;1.44;56.49
76478;BME280;65309;49.790;18.972;2023-02-28T15:10:58;97931.16;;;1.48;56.93
76478;BME280;65309;49.790;18.972;2023-02-28T15:16:04;97920.28;;;1.37;56.86
76478;BME280;65309;49.790;18.972;2023-02-28T15:21:12;97927.69;;;1.22;58.23
76478;BME280;65309;49.790;18.972;2023-02-28T15:26:19;97921.44;;;1.15;58.92
76478;BME280;65309;49.790;18.972;2023-02-28T15:31:26;97917.97;;;1.07;58.41
76478;BME280;65309;49.790;18.972;2023-02-28T15:36:30;97910.94;;;0.92;58.97
76478;BME280;65309;49.790;18.972;2023-02-28T15:41:37;97920.66;;;0.86;58.17
76478;BME280;65309;49.790;18.972;2023-02-28T15:46:41;97922.56;;;0.68;59.15
76478;BME280;65309;49.790;18.972;2023-02-28T15:51:45;97922.56;;;0.68;59.15
76478;BME280;65309;49.790;18.972;2023-02-28T15:56:51;97931.88;;;0.49;59.88
76478;BME280;65309;49.790;18.972;2023-02-28T16:02:18;97933.00;;;0.37;61.71
76478;BME280;65309;49.790;18.972;2023-02-28T16:07:22;97933.31;;;0.25;60.86
76478;BME280;65309;49.790;18.972;2023-02-28T16:12:27;97936.38;;;0.10;61.94
76478;BME280;65309;49.790;18.972;2023-02-28T16:17:33;97942.50;;;-0.08;62.70
76478;BME280;65309;49.790;18.972;2023-02-28T16:22:35;97938.84;;;-0.33;63.54
76478;BME280;65309;49.790;18.972;2023-02-28T16:27:39;97939.47;;;-0.61;66.33
76478;BME280;65309;49.790;18.972;2023-02-28T16:32:41;97945.16;;;-0.80;66.97
76478;BME280;65309;49.790;18.972;2023-02-28T16:37:44;97945.16;;;-0.80;66.97
76478;BME280;65309;49.790;18.972;2023-02-28T16:42:48;97958.59;;;-1.34;68.69
76478;BME280;65309;49.790;18.972;2023-02-28T16:47:53;97957.63;;;-1.53;69.49
76478;BME280;65309;49.790;18.972;2023-02-28T16:52:55;97960.59;;;-1.65;70.12
76478;BME280;65309;49.790;18.972;2023-02-28T16:58:00;97963.50;;;-1.80;71.00
76478;BME280;65309;49.790;18.972;2023-02-28T17:03:02;97962.97;;;-1.93;71.62
76478;BME280;65309;49.790;18.972;2023-02-28T17:08:08;97962.97;;;-1.93;71.62
76478;BME280;65309;49.790;18.972;2023-02-28T17:13:12;97970.81;;;-2.14;73.13
76478;BME280;65309;49.790;18.972;2023-02-28T17:18:18;97970.81;;;-2.14;73.13
76478;BME280;65309;49.790;18.972;2023-02-28T17:23:20;97970.81;;;-2.14;73.13
76478;BME280;65309;49.790;18.972;2023-02-28T17:28:24;97970.81;;;-2.14;73.13
76478;BME280;65309;49.790;18.972;2023-02-28T17:33:26;97970.81;;;-2.14;73.13
76478;BME280;65309;49.790;18.972;2023-02-28T17:38:28;97970.81;;;-2.14;73.13
76478;BME280;65309;49.790;18.972;2023-02-28T17:43:31;97970.81;;;-2.14;73.13
76478;BME280;65309;49.790;18.972;2023-02-28T17:48:33;97970.81;;;-2.14;73.13
76478;BME280;65309;49.790;18.972;2023-02-28T17:53:37;97970.81;;;-2.14;73.13
76478;BME280;65309;49.790;18.972;2023-02-28T17:58:40;97970.81;;;-2.14;73.13
76478;BME280;65309;49.790;18.972;2023-02-28T18:03:43;97970.81;;;-2.14;73.13
76478;BME280;65309;49.790;18.972;2023-02-28T18:08:45;97963.13;;;-2.88;78.06
76478;BME280;65309;49.790;18.972;2023-02-28T18:13:50;97963.13;;;-2.88;78.06
76478;BME280;65309;49.790;18.972;2023-02-28T18:18:53;97963.13;;;-2.88;78.06
76478;BME280;65309;49.790;18.972;2023-02-28T18:23:56;97963.13;;;-2.88;78.06
76478;BME280;65309;49.790;18.972;2023-02-28T18:29:00;97963.13;;;-2.88;78.06
76478;BME280;65309;49.790;18.972;2023-02-28T18:34:02;97963.13;;;-2.88;78.06
76478;BME280;65309;49.790;18.972;2023-02-28T18:39:04;97963.13;;;-2.88;78.06
76478;BME280;65309;49.790;18.972;2023-02-28T18:44:08;97963.13;;;-2.88;78.06
76478;BME280;65309;49.790;18.972;2023-02-28T18:49:20;97963.13;;;-2.88;78.06
76478;BME280;65309;49.790;18.972;2023-02-28T18:54:22;97963.13;;;-2.88;78.06
76478;BME280;65309;49.790;18.972;2023-02-28T18:59:26;97963.13;;;-2.88;78.06
76478;BME280;65309;49.790;18.972;2023-02-28T19:04:28;97963.13;;;-2.88;78.06
76478;BME280;65309;49.790;18.972;2023-02-28T19:09:30;97963.13;;;-2.88;78.06
76478;BME280;65309;49.790;18.972;2023-02-28T19:14:33;97963.13;;;-2.88;78.06
76478;BME280;65309;49.790;18.972;2023-02-28T19:19:35;97963.13;;;-2.88;78.06
76478;BME280;65309;49.790;18.972;2023-02-28T19:24:38;97963.13;;;-2.88;78.06
76478;BME280;65309;49.790;18.972;2023-02-28T19:29:41;97963.13;;;-2.88;78.06
76478;BME280;65309;49.790;18.972;2023-02-28T19:34:43;97963.13;;;-2.88;78.06
76478;BME280;65309;49.790;18.972;2023-02-28T19:39:45;97963.13;;;-2.88;78.06
76478;BME280;65309;49.790;18.972;2023-02-28T19:44:49;97963.13;;;-2.88;78.06
76478;BME280;65309;49.790;18.972;2023-02-28T19:49:51;97963.13;;;-2.88;78.06
76478;BME280;65309;49.790;18.972;2023-02-28T19:54:56;97963.13;;;-2.88;78.06
76478;BME280;65309;49.790;18.972;2023-02-28T20:00:01;97963.13;;;-2.88;78.06
76478;BME280;65309;49.790;18.972;2023-02-28T20:05:03;97963.13;;;-2.88;78.06
76478;BME280;65309;49.790;18.972;2023-02-28T20:10:06;97963.13;;;-2.88;78.06
76478;BME280;65309;49.790;18.972;2023-02-28T20:15:10;97963.13;;;-145.46;78.06
76478;BME280;65309;49.790;18.972;2023-02-28T20:20:12;97963.13;;;-2.88;78.06
76478;BME280;65309;49.790;18.972;2023-02-28T20:25:14;97946.44;;;-3.96;81.56
76478;BME280;65309;49.790;18.972;2023-02-28T20:30:19;97939.06;;;-3.99;82.97
76478;BME280;65309;49.790;18.972;2023-02-28T20:35:23;97935.41;;;-3.88;82.67
76478;BME280;65309;49.790;18.972;2023-02-28T20:40:25;97938.44;;;-3.93;83.21
76478;BME280;65309;49.790;18.972;2023-02-28T20:45:29;97933.44;;;-3.91;83.20
76478;BME280;65309;49.790;18.972;2023-02-28T20:50:31;97938.84;;;-4.10;83.17
76478;BME280;65309;49.790;18.972;2023-02-28T20:55:33;97938.53;;;-4.05;83.12
76478;BME280;65309;49.790;18.972;2023-02-28T21:00:36;97942.81;;;-4.04;83.37
76478;BME280;65309;49.790;18.972;2023-02-28T21:05:38;97952.16;;;-4.01;83.79
76478;BME280;65309;49.790;18.972;2023-02-28T21:10:40;97947.22;;;-4.15;82.13
76478;BME280;65309;49.790;18.972;2023-02-28T21:15:43;97950.97;;;-4.39;82.62
76478;BME280;65309;49.790;18.972;2023-02-28T21:20:46;97947.09;;;-4.57;83.94
76478;BME280;65309;49.790;18.972;2023-02-28T21:25:48;97945.69;;;-4.51;84.32
76478;BME280;65309;49.790;18.972;2023-02-28T21:30:51;97933.91;;;-4.43;85.51
76478;BME280;65309;49.790;18.972;2023-02-28T21:35:59;97934.47;;;-4.34;84.79
76478;BME280;65309;49.790;18.972;2023-02-28T21:41:05;97940.38;;;-4.47;84.76
76478;BME280;65309;49.790;18.972;2023-02-28T21:46:10;97933.06;;;-4.47;85.18
76478;BME280;65309;49.790;18.972;2023-02-28T21:51:14;97943.69;;;-4.54;84.71
76478;BME280;65309;49.790;18.972;2023-02-28T21:56:18;97942.56;;;-4.53;85.61
76478;BME280;65309;49.790;18.972;2023-02-28T22:01:22;97942.63;;;-4.49;86.04
76478;BME280;65309;49.790;18.972;2023-02-28T22:06:25;97951.09;;;-4.51;86.01
76478;BME280;65309;49.790;18.972;2023-02-28T22:11:28;97958.91;;;-4.46;85.34
76478;BME280;65309;49.790;18.972;2023-02-28T22:16:32;97954.56;;;-4.50;86.25
76478;BME280;65309;49.790;18.972;2023-02-28T22:21:52;97950.06;;;-4.62;85.59
76478;BME280;65309;49.790;18.972;2023-02-28T22:26:54;97944.25;;;-4.80;86.13
76478;BME280;65309;49.790;18.972;2023-02-28T22:31:58;97938.16;;;-4.92;86.36
76478;BME280;65309;49.790;18.972;2023-02-28T22:37:00;97944.88;;;-4.86;87.36
76478;BME280;65309;49.790;18.972;2023-02-28T22:42:02;97941.84;;;-4.85;86.95
76478;BME280;65309;49.790;18.972;2023-02-28T22:47:05;97958.53;;;-4.95;86.79
76478;BME280;65309;49.790;18.972;2023-02-28T22:52:08;97949.75;;;-5.07;87.26
76478;BME280;65309;49.790;18.972;2023-02-28T22:57:10;97956.28;;;-5.08;87.97
76478;BME280;65309;49.790;18.972;2023-02-28T23:02:14;97965.34;;;-5.01;86.67
76478;BME280;65309;49.790;18.972;2023-02-28T23:07:16;97959.91;;;-5.17;87.71
76478;BME280;65309;49.790;18.972;2023-02-28T23:12:18;97971.16;;;-5.15;87.25
76478;BME280;65309;49.790;18.972;2023-02-28T23:17:21;97958.97;;;-5.08;87.63
76478;BME280;65309;49.790;18.972;2023-02-28T23:22:23;97960.38;;;-5.15;87.08
76478;BME280;65309;49.790;18.972;2023-02-28T23:27:25;97964.44;;;-5.05;87.01
76478;BME280;65309;49.790;18.972;2023-02-28T23:32:29;97973.22;;;-5.08;87.73
76478;BME280;65309;49.790;18.972;2023-02-28T23:37:31;97978.13;;;-5.14;87.49
76478;BME280;65309;49.790;18.972;2023-02-28T23:42:33;97980.13;;;-5.11;88.06
76478;BME280;65309;49.790;18.972;2023-02-28T23:47:37;97982.97;;;-5.03;87.58
76478;BME280;65309;49.790;18.972;2023-02-28T23:52:39;97988.63;;;-5.08;88.24
76478;BME280;65309;49.790;18.972;2023-02-28T23:57:41;97992.13;;;-5.08;87.20
